Terminal Aerodrome Forecast
Issued by NWS

Home | Current Version | Previous Version | Text Only | Print | Product List | Glossary On
Versions: 1 2 3 4 5 6 7 8 9 10 11 12 13 14 15 16 17
488
FTUS41 KGYX 241859 AAA
TAFPSM
TAF AMD
KPSM 241859Z 2419/2518 17007KT 4SM -SHRA BKN025 OVC050
      TEMPO 2419/2421 2SM -RASNPL BKN015 OVC050
     FM242100 20009KT 3SM -RA OVC012
     FM250200 VRB05KT P6SM -SHRA BKN025 OVC050
     FM251200 35006KT P6SM BKN050 OVC080=

USA.gov is the U.S. government's official web portal to all federal, state and local government web resources and services.